Time;durP1;ratioP1;P1;durP2;ratioP2;P2;SDS_P1;SDS_P2;PMS_P1;PMS_P2;Temp;Humidity;BMP_temperature;BMP_pressure;BME280_temperature;BME280_humidity;BME280_pressure;Samples;Min_cycle;Max_cycle;Signal;HPM_P1;HPM_P2
2024/03/19 00:01:03;;;;;;;16.00;9.50;;;;;;;1.52;67.11;99310.21;105908;1256;96616;-81
2024/03/19 00:03:41;;;;;;;16.40;10.40;;;;;;;1.53;67.25;99312.13;105598;1252;109597;-81
2024/03/19 00:06:09;;;;;;;23.30;11.40;;;;;;;1.53;67.32;99310.36;105833;1256;96661;-80
2024/03/19 00:08:37;;;;;;;22.30;13.50;;;;;;;1.55;67.58;99312.58;105641;1266;106148;-81
2024/03/19 00:11:04;;;;;;;21.50;10.70;;;;;;;1.57;67.56;99314.10;105431;1256;96546;-82
2024/03/19 00:13:32;;;;;;;18.40;9.80;;;;;;;1.59;67.53;99311.92;105537;1254;96818;-80
2024/03/19 00:16:00;;;;;;;20.00;9.40;;;;;;;1.61;67.64;99317.99;105978;1256;110467;-81
2024/03/19 00:18:27;;;;;;;19.90;9.10;;;;;;;1.61;67.62;99315.87;106478;1256;96587;-83
2024/03/19 00:20:55;;;;;;;17.40;9.00;;;;;;;1.59;67.45;99318.03;105767;1264;107234;-81
2024/03/19 00:23:22;;;;;;;19.20;11.30;;;;;;;1.58;67.45;99318.61;105490;1256;99287;-80
2024/03/19 00:25:50;;;;;;;24.10;10.50;;;;;;;1.56;67.49;99322.34;105717;1256;97966;-81
2024/03/19 00:28:18;;;;;;;19.70;10.20;;;;;;;1.54;67.31;99320.80;105562;1256;111286;-80
2024/03/19 00:30:45;;;;;;;19.10;10.40;;;;;;;1.55;67.54;99317.82;105783;1256;97964;-80
2024/03/19 00:33:13;;;;;;;19.20;9.50;;;;;;;1.54;67.64;99313.67;105784;1256;107547;-80
2024/03/19 00:35:46;;;;;;;19.50;9.30;;;;;;;1.53;67.51;99311.77;106384;1254;98671;-81
2024/03/19 00:38:14;;;;;;;16.00;9.10;;;;;;;1.51;67.68;99308.69;106845;1256;97879;-79
2024/03/19 00:40:41;;;;;;;19.50;9.80;;;;;;;1.49;67.57;99311.17;105493;1264;111407;-80
2024/03/19 00:43:09;;;;;;;21.90;10.40;;;;;;;1.49;67.40;99312.77;105850;1253;97888;-81
2024/03/19 00:45:37;;;;;;;18.60;10.20;;;;;;;1.46;67.65;99311.10;105526;1257;107732;-80
2024/03/19 00:48:05;;;;;;;18.20;9.50;;;;;;;1.45;67.44;99313.75;105715;1267;97980;-81
2024/03/19 00:50:32;;;;;;;19.40;10.80;;;;;;;1.46;67.59;99316.19;105844;1256;98294;-80
2024/03/19 00:53:00;;;;;;;21.30;10.90;;;;;;;1.45;67.69;99310.59;105793;1257;111865;-81
2024/03/19 00:55:28;;;;;;;15.20;9.00;;;;;;;1.44;67.83;99310.98;106686;1256;97968;-80
2024/03/19 00:57:56;;;;;;;20.00;9.90;;;;;;;1.44;67.63;99311.70;105721;1256;106315;-82
2024/03/19 01:00:24;;;;;;;24.00;11.40;;;;;;;1.42;67.65;99311.04;105721;1254;97951;-80
2024/03/19 01:02:52;;;;;;;23.20;10.40;;;;;;;1.42;67.64;99308.61;105801;1253;98911;-81
2024/03/19 01:05:19;;;;;;;20.80;9.20;;;;;;;1.43;67.87;99307.89;105513;1256;111270;-82
2024/03/19 01:07:47;;;;;;;19.70;10.00;;;;;;;1.43;67.86;99307.17;105763;1256;98053;-80
2024/03/19 01:10:14;;;;;;;20.10;9.00;;;;;;;1.42;67.96;99310.36;105790;1256;107482;-80
2024/03/19 01:12:42;;;;;;;20.30;10.00;;;;;;;1.41;67.62;99310.23;105610;1257;99203;-81
2024/03/19 01:15:10;;;;;;;17.60;9.80;;;;;;;1.37;67.63;99310.85;106633;1254;97747;-80
2024/03/19 01:17:39;;;;;;;18.50;9.80;;;;;;;1.35;67.77;99312.85;105844;1256;111210;-80
2024/03/19 01:20:10;;;;;;;17.00;9.90;;;;;;;1.35;67.96;99316.88;105781;1257;97991;-80
2024/03/19 01:22:39;;;;;;;20.80;10.70;;;;;;;1.35;68.13;99316.52;105634;1266;107210;-81
2024/03/19 01:25:07;;;;;;;18.00;10.50;;;;;;;1.35;68.01;99311.27;105622;1256;97976;-81
2024/03/19 01:27:35;;;;;;;18.60;9.30;;;;;;;1.35;68.12;99314.41;105893;1253;97913;-82
2024/03/19 01:30:03;;;;;;;20.30;10.80;;;;;;;1.37;68.34;99315.59;105755;1256;111015;-81
2024/03/19 01:32:30;;;;;;;18.20;10.40;;;;;;;1.37;68.19;99316.45;106052;1259;97939;-82
2024/03/19 01:34:58;;;;;;;23.20;12.40;;;;;;;1.38;68.31;99319.57;106372;1257;106317;-81
2024/03/19 01:37:25;;;;;;;22.20;10.80;;;;;;;1.39;68.21;99321.48;105718;1256;98054;-82
2024/03/19 01:39:53;;;;;;;17.70;9.40;;;;;;;1.40;68.30;99321.27;105477;1256;97976;-81
2024/03/19 01:42:21;;;;;;;20.10;10.10;;;;;;;1.41;68.28;99324.91;105770;1256;111320;-80
2024/03/19 01:44:51;;;;;;;16.70;9.00;;;;;;;1.41;68.43;99324.89;105720;1257;98486;-81
2024/03/19 01:47:18;;;;;;;15.20;9.00;;;;;;;1.43;68.36;99325.20;105677;1256;107085;-81
2024/03/19 01:49:47;;;;;;;19.70;10.50;;;;;;;1.43;68.45;99324.30;106012;1257;98522;-82
2024/03/19 01:52:14;;;;;;;21.50;9.80;;;;;;;1.43;68.35;99323.95;106752;1257;97878;-82
2024/03/19 01:54:42;;;;;;;16.10;9.50;;;;;;;1.43;68.53;99328.99;106268;1256;111281;-82
2024/03/19 01:57:10;;;;;;;21.40;10.60;;;;;;;1.44;68.58;99325.83;105712;1257;97954;-81
2024/03/19 01:59:37;;;;;;;16.50;8.70;;;;;;;1.45;68.60;99330.36;105519;1258;107782;-81
2024/03/19 02:02:05;;;;;;;18.20;9.80;;;;;;;1.46;68.41;99328.75;105745;1256;97977;-82
2024/03/19 02:04:33;;;;;;;17.00;9.80;;;;;;;1.47;68.85;99327.48;105744;1256;97982;-82
2024/03/19 02:07:01;;;;;;;17.20;9.30;;;;;;;1.48;68.40;99329.73;105687;1256;110753;-82
2024/03/19 02:09:29;;;;;;;16.90;9.10;;;;;;;1.49;68.65;99324.64;106312;1254;97868;-82
2024/03/19 02:12:00;;;;;;;19.20;10.20;;;;;;;1.48;68.66;99328.33;106463;1256;107586;-82
2024/03/19 02:14:27;;;;;;;16.90;10.20;;;;;;;1.50;68.60;99328.98;105792;1275;97963;-80
2024/03/19 02:16:55;;;;;;;19.40;10.00;;;;;;;1.50;68.81;99329.87;105712;1254;99305;-81
2024/03/19 02:19:23;;;;;;;20.40;10.20;;;;;;;1.46;68.53;99330.14;105833;1254;111726;-80
2024/03/19 02:21:50;;;;;;;23.80;11.00;;;;;;;1.45;68.66;99332.64;105871;1256;98040;-81
2024/03/19 02:24:18;;;;;;;12.80;7.30;;;;;;;1.44;68.72;99337.20;105806;1256;107577;-80
2024/03/19 02:26:45;;;;;;;20.30;10.40;;;;;;;1.41;68.69;99335.03;105708;1266;97958;-80
2024/03/19 02:29:13;;;;;;;20.70;10.00;;;;;;;1.40;68.64;99338.04;106548;1257;97822;-78
2024/03/19 02:31:41;;;;;;;18.30;10.70;;;;;;;1.40;68.74;99335.77;105815;1256;110996;-81
2024/03/19 02:34:09;;;;;;;17.40;10.00;;;;;;;1.41;68.76;99335.55;105816;1256;97980;-81
2024/03/19 02:36:36;;;;;;;18.00;9.50;;;;;;;1.44;68.65;99336.16;105739;1256;107734;-81
2024/03/19 02:39:04;;;;;;;24.60;11.40;;;;;;;1.44;68.60;99337.55;105646;1266;97967;-79
2024/03/19 02:41:31;;;;;;;20.80;10.60;;;;;;;1.41;68.39;99342.20;105743;1253;97986;-80
2024/03/19 02:43:59;;;;;;;20.80;10.60;;;;;;;1.40;68.64;99342.05;105780;1256;110814;-80
2024/03/19 02:46:26;;;;;;;22.10;10.20;;;;;;;1.41;68.69;99342.04;106290;1267;97957;-80
2024/03/19 02:48:54;;;;;;;21.10;10.60;;;;;;;1.41;68.49;99345.88;106038;1256;107136;-80
2024/03/19 02:51:23;;;;;;;22.20;10.10;;;;;;;1.39;68.64;99347.84;105529;1257;98060;-79
2024/03/19 02:53:51;;;;;;;20.90;11.10;;;;;;;1.39;68.73;99351.36;105530;1266;98254;-80
2024/03/19 02:56:18;;;;;;;19.70;9.40;;;;;;;1.40;68.82;99350.80;105729;1265;111202;-80
2024/03/19 02:58:46;;;;;;;22.30;10.90;;;;;;;1.41;68.80;99351.12;105705;1256;97915;-80
2024/03/19 03:01:13;;;;;;;20.00;9.90;;;;;;;1.42;68.99;99351.09;105453;1267;107584;-80
2024/03/19 03:03:43;;;;;;;22.70;10.80;;;;;;;1.44;69.06;99350.14;106206;1254;98704;-80
2024/03/19 03:06:11;;;;;;;17.80;9.40;;;;;;;1.43;68.76;99351.21;106424;1254;97895;-80
2024/03/19 03:08:38;;;;;;;18.30;9.00;;;;;;;1.41;68.97;99347.27;105484;1256;111311;-80
2024/03/19 03:11:06;;;;;;;21.20;10.50;;;;;;;1.41;69.10;99350.95;105750;1256;98102;-80
2024/03/19 03:13:33;;;;;;;22.10;10.60;;;;;;;1.40;68.85;99350.61;105717;1257;107652;-79
2024/03/19 03:16:01;;;;;;;18.10;9.00;;;;;;;1.39;68.79;99351.52;105472;1256;97968;-81
2024/03/19 03:18:29;;;;;;;18.50;10.00;;;;;;;1.39;69.00;99355.20;105859;1256;97986;-80
2024/03/19 03:20:56;;;;;;;19.00;9.60;;;;;;;1.38;69.08;99355.58;105788;1260;111293;-81
2024/03/19 03:23:24;;;;;;;20.90;10.60;;;;;;;1.38;69.02;99358.73;106941;1254;97890;-80
2024/03/19 03:25:52;;;;;;;21.20;10.80;;;;;;;1.37;69.13;99358.93;106066;1257;105233;-81
2024/03/19 03:28:20;;;;;;;20.60;9.40;;;;;;;1.34;69.07;99358.82;105679;1264;98076;-79
2024/03/19 03:30:47;;;;;;;24.90;9.80;;;;;;;1.33;69.02;99359.02;105719;1256;98000;-80
2024/03/19 03:33:15;;;;;;;21.10;10.90;;;;;;;1.35;69.46;99361.08;105552;1261;110758;-80
2024/03/19 03:35:43;;;;;;;17.90;9.70;;;;;;;1.35;69.04;99362.83;105699;1254;98018;-80
2024/03/19 03:38:11;;;;;;;19.70;10.00;;;;;;;1.35;69.07;99363.00;105625;1266;107625;-81
2024/03/19 03:40:41;;;;;;;20.70;10.50;;;;;;;1.36;69.20;99365.42;105879;1257;98040;-80
2024/03/19 03:43:09;;;;;;;20.10;9.90;;;;;;;1.35;69.14;99365.95;106508;1257;97955;-80
2024/03/19 03:45:37;;;;;;;19.40;9.30;;;;;;;1.34;69.21;99366.16;105752;1256;111434;-79
2024/03/19 03:48:06;;;;;;;24.00;10.40;;;;;;;1.36;69.38;99371.02;105757;1257;97951;-81
2024/03/19 03:50:33;;;;;;;20.10;9.80;;;;;;;1.36;69.05;99368.05;105756;1257;108082;-79
2024/03/19 03:53:01;;;;;;;21.20;10.30;;;;;;;1.36;69.40;99365.23;105587;1256;99267;-80
2024/03/19 03:55:28;;;;;;;24.40;10.40;;;;;;;1.39;69.40;99365.14;105706;1257;99084;-80
2024/03/19 03:57:56;;;;;;;21.80;10.40;;;;;;;1.42;69.53;99369.80;105848;1256;111225;-80
2024/03/19 04:00:24;;;;;;;18.90;9.50;;;;;;;1.43;69.55;99370.80;106741;1255;97935;-80
2024/03/19 04:02:52;;;;;;;18.60;10.00;;;;;;;1.43;69.38;99369.55;105572;1256;107662;-80
2024/03/19 04:05:20;;;;;;;25.40;12.70;;;;;;;1.44;69.45;99373.02;105809;1257;99300;-80
2024/03/19 04:07:48;;;;;;;20.80;10.70;;;;;;;1.46;69.22;99373.14;105736;1266;98107;-81
2024/03/19 04:10:17;;;;;;;22.70;12.60;;;;;;;1.47;69.67;99373.80;105699;1253;109953;-81
2024/03/19 04:12:44;;;;;;;20.10;10.40;;;;;;;1.48;69.50;99378.85;105658;1257;99118;-80
2024/03/19 04:15:12;;;;;;;20.80;10.10;;;;;;;1.48;69.60;99376.41;105908;1256;106595;-81
2024/03/19 04:17:40;;;;;;;21.60;10.30;;;;;;;1.49;69.63;99381.95;106750;1252;97987;-81
2024/03/19 04:20:11;;;;;;;23.80;12.70;;;;;;;1.53;69.62;99383.77;105908;1256;99272;-81
2024/03/19 04:22:38;;;;;;;20.40;11.00;;;;;;;1.56;69.45;99384.40;105674;1257;111212;-79
2024/03/19 04:25:07;;;;;;;20.60;11.00;;;;;;;1.53;69.43;99388.52;105737;1257;99217;-80
2024/03/19 04:27:36;;;;;;;23.70;11.40;;;;;;;1.51;69.55;99386.29;105699;1258;107740;-81
2024/03/19 04:30:07;;;;;;;21.70;11.80;;;;;;;1.50;69.49;99386.31;105767;1256;98049;-80
2024/03/19 04:32:36;;;;;;;18.30;11.80;;;;;;;1.48;69.79;99385.66;105581;1257;98332;-81
2024/03/19 04:35:04;;;;;;;15.80;9.20;;;;;;;1.47;69.60;99388.50;106525;1266;110807;-80
2024/03/19 04:37:31;;;;;;;18.40;9.40;;;;;;;1.48;69.78;99388.80;105865;1256;98047;-80
2024/03/19 04:39:59;;;;;;;17.90;9.60;;;;;;;1.48;69.70;99390.05;105756;1257;107475;-80
2024/03/19 04:42:27;;;;;;;17.00;8.80;;;;;;;1.48;69.72;99393.17;105571;1254;98176;-80
2024/03/19 04:44:55;;;;;;;17.70;9.00;;;;;;;1.46;69.63;99393.59;105837;1264;97973;-80
2024/03/19 04:47:22;;;;;;;19.30;9.30;;;;;;;1.44;69.63;99396.62;105798;1256;109920;-80
2024/03/19 04:49:50;;;;;;;18.10;10.00;;;;;;;1.44;69.76;99397.50;105675;1257;98073;-81
2024/03/19 04:52:18;;;;;;;18.50;10.40;;;;;;;1.42;69.59;99400.52;106222;1254;107626;-80
2024/03/19 04:54:45;;;;;;;18.90;9.50;;;;;;;1.40;69.78;99398.85;106074;1257;98053;-81
2024/03/19 04:57:13;;;;;;;18.80;9.50;;;;;;;1.37;69.71;99398.41;105739;1257;98632;-79
2024/03/19 04:59:40;;;;;;;19.00;9.60;;;;;;;1.35;69.62;99402.66;105855;1258;111270;-80
2024/03/19 05:02:08;;;;;;;20.00;9.50;;;;;;;1.33;69.64;99410.56;105472;1266;97929;-76
2024/03/19 05:04:36;;;;;;;17.80;9.10;;;;;;;1.30;69.39;99409.63;105711;1257;107705;-74
2024/03/19 05:07:04;;;;;;;21.70;9.90;;;;;;;1.28;69.80;99413.33;105427;1254;98777;-75
2024/03/19 05:09:31;;;;;;;19.70;10.10;;;;;;;1.26;69.67;99421.79;105162;1257;98240;-75
2024/03/19 05:11:59;;;;;;;25.00;11.90;;;;;;;1.25;69.68;99421.13;105648;1256;111275;-74
2024/03/19 05:14:29;;;;;;;24.80;11.10;;;;;;;1.23;69.70;99420.14;105385;1254;97959;-74
2024/03/19 05:16:57;;;;;;;21.80;11.90;;;;;;;1.22;69.83;99422.28;105722;1255;108103;-75
2024/03/19 05:19:25;;;;;;;19.30;10.20;;;;;;;1.20;69.75;99429.31;105230;1267;98566;-76
2024/03/19 05:21:52;;;;;;;20.00;9.90;;;;;;;1.15;69.72;99427.69;105449;1257;99317;-76
2024/03/19 05:24:20;;;;;;;21.80;9.90;;;;;;;1.12;69.53;99433.17;105149;1258;111346;-75
2024/03/19 05:27:30;;;;;;;20.10;9.60;;;;;;;1.09;69.74;99434.83;105424;1255;97883;-77
2024/03/19 05:29:58;;;;;;;23.50;10.40;;;;;;;1.08;69.91;99435.92;108660;1252;107637;-76
2024/03/19 05:32:26;;;;;;;17.70;9.70;;;;;;;1.07;69.82;99439.27;108727;1254;95846;-75
2024/03/19 05:34:54;;;;;;;21.20;11.30;;;;;;;1.04;69.71;99439.52;108727;1254;95689;-76
2024/03/19 05:37:22;;;;;;;19.60;9.90;;;;;;;1.03;69.90;99439.89;107013;1256;110816;-75
2024/03/19 05:39:49;;;;;;;21.00;10.60;;;;;;;1.03;69.91;99442.15;105559;1257;98776;-74
2024/03/19 05:42:17;;;;;;;19.80;10.10;;;;;;;1.04;69.71;99444.41;107618;1256;107455;-74
2024/03/19 05:44:44;;;;;;;18.70;9.50;;;;;;;1.04;69.59;99443.88;105217;1257;98333;-74
2024/03/19 05:47:14;;;;;;;19.90;10.00;;;;;;;1.04;69.91;99448.78;105997;1256;97753;-72
2024/03/19 05:49:42;;;;;;;18.40;9.40;;;;;;;1.03;69.69;99447.23;108662;1252;112959;-73
2024/03/19 05:52:10;;;;;;;22.20;10.10;;;;;;;1.02;69.97;99452.33;107401;1254;97961;-73
2024/03/19 05:54:37;;;;;;;19.20;8.60;;;;;;;1.02;69.81;99449.18;105383;1266;107614;-72
2024/03/19 05:57:05;;;;;;;20.90;8.70;;;;;;;1.03;69.85;99451.06;105298;1257;97945;-72
2024/03/19 05:59:33;;;;;;;22.70;10.90;;;;;;;1.06;69.74;99452.57;105570;1264;97973;-72
2024/03/19 06:02:02;;;;;;;19.80;9.80;;;;;;;1.08;69.89;99460.02;105449;1257;111903;-74
2024/03/19 06:04:30;;;;;;;17.20;9.00;;;;;;;1.09;69.89;99460.70;105601;1254;97959;-72
2024/03/19 06:06:58;;;;;;;18.80;8.80;;;;;;;1.08;69.92;99462.98;105539;1257;106071;-72
2024/03/19 06:09:29;;;;;;;19.10;9.80;;;;;;;1.09;70.05;99461.39;105501;1258;97922;-73
2024/03/19 06:11:57;;;;;;;18.10;9.60;;;;;;;1.11;69.83;99462.58;105469;1257;97982;-73
2024/03/19 06:14:24;;;;;;;14.20;7.30;;;;;;;1.12;69.87;99466.20;105439;1256;111244;-73
2024/03/19 06:16:52;;;;;;;25.60;11.50;;;;;;;1.12;70.00;99463.05;105121;1256;97923;-73
2024/03/19 06:19:19;;;;;;;17.00;8.90;;;;;;;1.13;70.06;99465.47;105264;1257;107297;-73
2024/03/19 06:21:53;;;;;;;27.40;13.00;;;;;;;1.13;70.37;99463.38;105336;1258;97968;-72
2024/03/19 06:24:20;;;;;;;23.60;9.60;;;;;;;1.14;70.19;99459.86;105532;1254;97963;-72
2024/03/19 06:26:48;;;;;;;22.00;10.10;;;;;;;1.17;70.24;99460.65;105104;1256;111348;-73
2024/03/19 06:29:16;;;;;;;19.70;9.10;;;;;;;1.23;70.27;99464.34;105306;1266;98063;-72
2024/03/19 06:31:43;;;;;;;19.60;8.80;;;;;;;1.26;70.13;99467.39;105424;1266;108041;-73
2024/03/19 06:34:11;;;;;;;15.40;8.80;;;;;;;1.29;70.18;99471.84;105418;1264;98095;-72
2024/03/19 06:36:39;;;;;;;18.40;8.50;;;;;;;1.31;70.43;99473.00;105143;1254;97981;-73
2024/03/19 06:39:08;;;;;;;17.60;8.70;;;;;;;1.32;70.02;99473.85;105438;1266;110700;-72
2024/03/19 06:41:36;;;;;;;18.30;9.50;;;;;;;1.32;70.36;99471.59;105524;1257;97895;-73
2024/03/19 06:44:03;;;;;;;20.30;9.90;;;;;;;1.30;70.25;99471.31;105138;1266;107622;-73
2024/03/19 06:46:31;;;;;;;17.80;9.90;;;;;;;1.27;70.52;99479.25;105324;1254;97958;-74
2024/03/19 06:48:59;;;;;;;18.30;8.80;;;;;;;1.25;70.48;99478.94;105385;1253;97978;-73
2024/03/19 06:51:27;;;;;;;17.00;8.00;;;;;;;1.25;70.26;99479.45;105230;1255;111773;-72
2024/03/19 06:53:54;;;;;;;18.40;9.00;;;;;;;1.29;70.54;99482.86;105130;1261;97919;-74
2024/03/19 06:56:22;;;;;;;17.80;8.80;;;;;;;1.34;70.66;99484.48;105333;1254;106692;-73
2024/03/19 06:58:49;;;;;;;15.90;7.70;;;;;;;1.39;70.55;99487.48;105594;1256;97952;-72
2024/03/19 07:01:18;;;;;;;17.90;7.80;;;;;;;1.46;70.60;99491.11;105391;1256;98050;-74
2024/03/19 07:03:45;;;;;;;20.30;9.20;;;;;;;1.52;70.60;99487.63;105411;1257;109745;-72
2024/03/19 07:06:19;;;;;;;18.10;7.90;;;;;;;1.59;70.51;99490.94;105427;1257;99112;-73
2024/03/19 07:08:53;;;;;;;21.70;8.30;;;;;;;1.62;70.88;99491.73;105154;1257;107717;-73
2024/03/19 07:11:21;;;;;;;29.00;12.10;;;;;;;1.64;70.60;99487.10;105402;1254;97877;-74
2024/03/19 07:13:49;;;;;;;20.70;10.60;;;;;;;1.64;70.48;99481.67;105160;1257;98024;-73
2024/03/19 07:16:16;;;;;;;21.90;10.40;;;;;;;1.70;70.66;99481.87;105120;1260;111300;-73
2024/03/19 07:18:44;;;;;;;16.50;8.10;;;;;;;1.79;70.58;99484.58;105423;1266;99283;-73
2024/03/19 07:21:12;;;;;;;16.60;9.00;;;;;;;1.86;70.85;99489.44;105146;1258;105999;-72
2024/03/19 07:23:40;;;;;;;14.20;7.10;;;;;;;1.92;70.78;99496.76;105355;1258;98062;-76
2024/03/19 07:26:07;;;;;;;12.20;6.20;;;;;;;1.99;70.71;99495.00;105448;1254;97971;-73
2024/03/19 07:28:35;;;;;;;12.20;6.20;;;;;;;2.04;70.77;99494.66;105232;1254;111372;-73
2024/03/19 07:31:03;;;;;;;11.80;5.90;;;;;;;2.07;70.70;99493.17;105375;1256;97989;-75
2024/03/19 07:33:30;;;;;;;12.80;5.30;;;;;;;2.11;70.75;99490.78;105420;1257;107321;-73
2024/03/19 07:35:58;;;;;;;13.00;6.30;;;;;;;2.19;70.68;99494.04;105211;1252;98060;-74
2024/03/19 07:38:25;;;;;;;8.80;5.10;;;;;;;2.27;70.73;99493.23;105435;1257;97936;-74
2024/03/19 07:40:53;;;;;;;12.30;6.00;;;;;;;2.35;70.43;99486.88;105501;1256;111228;-72
2024/03/19 07:43:20;;;;;;;9.80;5.10;;;;;;;2.42;70.92;99485.27;105405;1256;98672;-75
2024/03/19 07:45:48;;;;;;;10.10;4.80;;;;;;;2.47;70.65;99487.54;105221;1257;107602;-73
2024/03/19 07:48:15;;;;;;;14.90;6.10;;;;;;;2.54;70.89;99488.39;105372;1257;98628;-73
2024/03/19 07:50:43;;;;;;;12.40;5.50;;;;;;;2.62;70.54;99494.75;105176;1256;98201;-72
2024/03/19 07:53:10;;;;;;;13.50;6.30;;;;;;;2.68;70.58;99494.72;105451;1254;110906;-73
2024/03/19 07:55:40;;;;;;;12.60;6.10;;;;;;;2.72;70.39;99497.42;105450;1254;98047;-73
2024/03/19 07:58:08;;;;;;;12.10;5.70;;;;;;;2.75;70.56;99501.49;105448;1257;108655;-74
2024/03/19 08:00:37;;;;;;;10.70;6.10;;;;;;;2.77;70.30;99501.63;105258;1254;98034;-75
2024/03/19 08:03:04;;;;;;;12.60;6.40;;;;;;;2.75;70.20;99506.05;105227;1254;97945;-74
2024/03/19 08:05:32;;;;;;;9.90;5.80;;;;;;;2.74;70.07;99507.16;105386;1252;111352;-74
2024/03/19 08:08:01;;;;;;;10.60;4.90;;;;;;;2.73;70.17;99507.54;105412;1257;98028;-73
2024/03/19 08:10:28;;;;;;;15.30;6.50;;;;;;;2.74;70.41;99507.84;105504;1254;107643;-73
2024/03/19 08:12:56;;;;;;;11.70;5.50;;;;;;;2.76;70.33;99504.09;105228;1257;97986;-74
2024/03/19 08:15:23;;;;;;;11.20;5.40;;;;;;;2.79;70.26;99509.77;105511;1256;97967;-73
2024/03/19 08:17:52;;;;;;;9.20;4.70;;;;;;;2.80;69.99;99507.13;105330;1254;111345;-74
2024/03/19 08:20:22;;;;;;;11.80;7.00;;;;;;;2.82;70.01;99501.79;105367;1268;99308;-74
2024/03/19 08:22:50;;;;;;;11.00;5.60;;;;;;;2.87;70.16;99502.00;105517;1256;107664;-72
2024/03/19 08:25:18;;;;;;;14.50;9.70;;;;;;;2.92;70.20;99498.14;105265;1254;121944;-73
2024/03/19 08:27:46;;;;;;;12.60;6.10;;;;;;;3.00;70.15;99499.61;105390;1256;97883;-74
2024/03/19 08:30:13;;;;;;;13.00;6.40;;;;;;;3.06;69.90;99499.39;105221;1257;112584;-74
2024/03/19 08:32:41;;;;;;;9.10;4.40;;;;;;;3.11;70.19;99497.80;105373;1257;97869;-74
2024/03/19 08:35:10;;;;;;;11.30;5.00;;;;;;;3.15;70.14;99498.05;105490;1257;107155;-73
2024/03/19 08:37:38;;;;;;;8.70;5.00;;;;;;;3.18;70.18;99503.73;105173;1257;99174;-73
2024/03/19 08:40:06;;;;;;;9.60;4.60;;;;;;;3.20;70.05;99499.80;105516;1253;97894;-72
2024/03/19 08:42:34;;;;;;;11.20;5.40;;;;;;;3.25;70.13;99501.54;105201;1254;110979;-73
2024/03/19 08:45:10;;;;;;;10.00;4.50;;;;;;;3.32;70.30;99501.65;105264;1258;98028;-74
2024/03/19 08:47:38;;;;;;;8.40;4.60;;;;;;;3.35;70.17;99498.02;105294;1267;107679;-73
2024/03/19 08:50:07;;;;;;;8.70;5.10;;;;;;;3.38;69.83;99499.34;105533;1257;97980;-75
2024/03/19 08:52:36;;;;;;;8.70;5.00;;;;;;;3.36;69.97;99494.14;105316;1256;98223;-73
2024/03/19 08:55:04;;;;;;;9.60;5.00;;;;;;;3.39;69.80;99498.95;105315;1257;110858;-74
2024/03/19 08:57:32;;;;;;;8.40;5.40;;;;;;;3.42;69.74;99502.36;105472;1254;99395;-72
2024/03/19 08:59:59;;;;;;;8.60;4.80;;;;;;;3.44;69.69;99501.92;105131;1256;108140;-73
2024/03/19 09:02:27;;;;;;;13.10;5.30;;;;;;;3.45;69.87;99499.63;105367;1267;98048;-74
2024/03/19 09:04:54;;;;;;;36.20;13.50;;;;;;;3.48;69.84;99508.27;105510;1253;97917;-73
2024/03/19 09:07:22;;;;;;;56.50;21.50;;;;;;;3.53;69.85;99505.98;105141;1266;111005;-74
2024/03/19 09:09:52;;;;;;;15.30;7.00;;;;;;;3.57;69.80;99506.36;105351;1256;97973;-74
2024/03/19 09:12:19;;;;;;;12.80;6.40;;;;;;;3.58;69.73;99511.92;105430;1258;107105;-74
2024/03/19 09:14:47;;;;;;;9.10;5.20;;;;;;;3.59;69.79;99512.95;105205;1257;97955;-73
2024/03/19 09:17:15;;;;;;;12.10;6.50;;;;;;;3.58;69.69;99515.09;105526;1253;98044;-74
2024/03/19 09:19:45;;;;;;;10.50;5.40;;;;;;;3.57;69.47;99517.77;105526;1256;111034;-74
2024/03/19 09:22:13;;;;;;;69.20;28.20;;;;;;;3.55;69.63;99524.13;105432;1254;99320;-74
2024/03/19 09:24:40;;;;;;;26.50;11.90;;;;;;;3.56;69.45;99526.56;105450;1254;107572;-74
2024/03/19 09:27:08;;;;;;;51.80;20.70;;;;;;;3.55;69.61;99526.42;105138;1254;97973;-75
2024/03/19 09:29:36;;;;;;;30.10;11.60;;;;;;;3.55;69.46;99521.17;105188;1256;98040;-73
2024/03/19 09:32:03;;;;;;;16.10;6.80;;;;;;;3.58;69.71;99521.95;105259;1256;111232;-72
2024/03/19 09:34:31;;;;;;;19.90;7.90;;;;;;;3.64;69.73;99520.48;105516;1253;98012;-73
2024/03/19 09:36:58;;;;;;;23.00;9.40;;;;;;;3.73;69.63;99516.63;105347;1257;107139;-73
2024/03/19 09:39:26;;;;;;;12.60;6.70;;;;;;;3.80;69.70;99522.02;105531;1257;99312;-72
2024/03/19 09:42:16;;;;;;;14.30;6.30;;;;;;;3.84;69.72;99524.67;105440;1253;97957;-75
2024/03/19 09:44:44;;;;;;;13.40;6.80;;;;;;;3.88;69.57;99519.58;105455;1253;111226;-73
2024/03/19 09:47:16;;;;;;;10.50;6.20;;;;;;;3.94;69.62;99519.56;105518;1254;97966;-74
2024/03/19 09:49:46;;;;;;;23.10;9.00;;;;;;;3.95;69.32;99522.86;105383;1257;107685;-73
2024/03/19 09:52:14;;;;;;;22.20;8.20;;;;;;;3.98;69.33;99527.30;105483;1256;98101;-73
2024/03/19 09:54:42;;;;;;;15.20;7.00;;;;;;;3.99;69.28;99523.92;105486;1254;98047;-73
2024/03/19 09:57:16;;;;;;;11.40;6.30;;;;;;;4.00;69.46;99518.63;105366;1256;111584;-73
2024/03/19 09:59:44;;;;;;;16.50;9.00;;;;;;;4.03;69.47;99514.65;105478;1257;98553;-73
2024/03/19 10:02:17;;;;;;;13.50;7.20;;;;;;;4.08;69.47;99515.16;105445;1254;107767;-73
2024/03/19 10:04:49;;;;;;;25.10;13.90;;;;;;;4.10;69.16;99507.35;105400;1253;97945;-74
2024/03/19 10:07:21;;;;;;;29.50;11.70;;;;;;;4.10;69.24;99516.64;105430;1256;99282;-74
2024/03/19 10:09:51;;;;;;;20.50;9.10;;;;;;;4.09;69.22;99514.59;105368;1256;111022;-74
2024/03/19 10:12:20;;;;;;;11.10;6.20;;;;;;;4.10;69.33;99513.30;105395;1268;98320;-73
2024/03/19 10:14:48;;;;;;;13.80;6.70;;;;;;;4.11;69.09;99509.06;105603;1257;107514;-72
2024/03/19 10:17:16;;;;;;;10.10;5.70;;;;;;;4.13;69.08;99508.10;105179;1256;98086;-73
2024/03/19 10:19:44;;;;;;;12.10;6.40;;;;;;;4.16;69.03;99513.98;105368;1256;97950;-73
2024/03/19 10:22:12;;;;;;;11.70;6.40;;;;;;;4.18;69.05;99505.99;105428;1256;111292;-73
2024/03/19 10:24:45;;;;;;;10.20;6.50;;;;;;;4.21;68.93;99510.08;105219;1258;97958;-75
2024/03/19 10:27:16;;;;;;;11.60;6.20;;;;;;;4.22;68.82;99513.23;105363;1256;107610;-73
2024/03/19 10:29:46;;;;;;;13.60;6.30;;;;;;;4.18;68.77;99518.61;105492;1254;98050;-73
2024/03/19 10:32:14;;;;;;;15.80;6.40;;;;;;;4.15;68.60;99515.94;105265;1256;98008;-73
2024/03/19 10:34:53;;;;;;;11.10;6.00;;;;;;;4.15;68.81;99507.69;105182;1256;110831;-74
2024/03/19 10:37:21;;;;;;;9.30;5.60;;;;;;;4.16;68.69;99510.63;105398;1253;98038;-74
2024/03/19 10:39:49;;;;;;;11.50;6.50;;;;;;;4.17;68.72;99503.73;105391;1256;107574;-72
2024/03/19 10:42:18;;;;;;;11.60;7.10;;;;;;;4.19;68.72;99499.30;105404;1256;97992;-73
2024/03/19 10:44:45;;;;;;;10.80;6.20;;;;;;;4.20;68.70;99503.14;105378;1257;98047;-73
2024/03/19 10:47:15;;;;;;;15.60;7.90;;;;;;;4.19;68.41;99501.94;105433;1256;111215;-73
2024/03/19 10:49:43;;;;;;;13.40;6.90;;;;;;;4.17;68.34;99502.34;105386;1256;97972;-73
2024/03/19 10:52:17;;;;;;;11.60;6.90;;;;;;;4.21;68.25;99506.97;105481;1256;106793;-73
2024/03/19 10:54:47;;;;;;;11.00;6.30;;;;;;;4.22;68.53;99504.09;105466;1254;98021;-72
2024/03/19 10:57:17;;;;;;;14.10;8.10;;;;;;;4.28;68.49;99498.40;105365;1254;99481;-73
2024/03/19 10:59:45;;;;;;;12.60;6.30;;;;;;;4.32;68.19;99494.21;105398;1253;111439;-73
2024/03/19 11:03:33;;;;;;;;;;;;;;;4.39;68.12;99488.50;102127;1294;636122;-71
2024/03/19 11:06:05;;;;;;;9.30;4.80;;;;;;;4.34;68.06;99486.04;104493;1285;95315;-73
2024/03/19 11:08:36;;;;;;;8.80;5.10;;;;;;;4.31;68.04;99486.17;104623;1269;95366;-73
2024/03/19 11:11:08;;;;;;;11.70;6.10;;;;;;;4.32;68.10;99485.42;104877;1266;108557;-72
2024/03/19 11:13:35;;;;;;;21.00;9.60;;;;;;;4.38;68.17;99488.88;104499;1266;95190;-72
2024/03/19 11:16:13;;;;;;;13.40;6.60;;;;;;;4.44;67.86;99491.08;104695;1266;143718;-73
2024/03/19 11:18:44;;;;;;;12.30;6.50;;;;;;;4.52;67.64;99496.73;104782;1260;95273;-72
2024/03/19 11:21:22;;;;;;;12.70;6.50;;;;;;;4.57;67.84;99498.66;104949;1265;95321;-72
2024/03/19 11:23:51;;;;;;;12.10;6.00;;;;;;;4.62;67.86;99498.61;104764;1260;108083;-72
2024/03/19 11:26:22;;;;;;;9.60;5.20;;;;;;;4.70;68.02;99498.99;105026;1266;95199;-72